Time;durP1;ratioP1;P1;durP2;ratioP2;P2;SDS_P1;SDS_P2;PMS_P1;PMS_P2;Temp;Humidity;BMP_temperature;BMP_pressure;BME280_temperature;BME280_humidity;BME280_pressure;Samples;Min_cycle;Max_cycle;Signal;HPM_P1;HPM_P2
2021/08/08 02:45:19;;;;;;;1.70;1.00;;;20.00;94.50;;;;;;5666426;24;20032;31
2021/08/08 02:47:48;;;;;;;1.27;0.90;;;20.10;94.30;;;;;;4722103;30;20447;-83
2021/08/08 02:50:15;;;;;;;0.95;0.80;;;20.10;94.70;;;;;;4710709;30;20036;-84
2021/08/08 02:52:42;;;;;;;;;;;20.10;94.10;;;;;;4710908;30;20101;-84
2021/08/08 02:55:11;;;;;;;0.70;0.57;;;20.10;94.40;;;;;;4725080;30;19926;-84
2021/08/08 02:57:39;;;;;;;1.33;1.17;;;20.10;93.60;;;;;;4710621;30;20033;-84
2021/08/08 03:00:05;;;;;;;1.02;0.70;;;20.20;93.90;;;;;;4710457;30;20073;-84
2021/08/08 03:02:31;;;;;;;2.67;1.17;;;20.30;94.00;;;;;;4710507;30;20053;-84
2021/08/08 03:04:57;;;;;;;1.20;0.75;;;20.30;93.90;;;;;;4710249;30;20076;-84
2021/08/08 03:07:23;;;;;;;7.72;1.50;;;20.30;93.70;;;;;;4710278;30;20364;-84
2021/08/08 03:09:49;;;;;;;1.42;1.08;;;20.30;93.70;;;;;;4709942;30;20075;-84
2021/08/08 03:12:15;;;;;;;1.38;1.00;;;20.40;93.80;;;;;;4710180;30;20116;-84
2021/08/08 03:14:42;;;;;;;1.75;1.13;;;20.40;93.60;;;;;;4710459;30;20041;-84
2021/08/08 03:17:08;;;;;;;0.82;0.60;;;20.50;93.60;;;;;;4710206;30;20037;-84
2021/08/08 03:19:34;;;;;;;1.00;0.82;;;20.50;93.30;;;;;;4710459;30;20029;-84
2021/08/08 03:21:59;;;;;;;1.02;0.90;;;20.50;93.60;;;;;;4710304;30;20033;-84
2021/08/08 03:24:25;;;;;;;0.98;0.70;;;20.50;93.20;;;;;;4711590;30;20109;-84
2021/08/08 03:26:54;;;;;;;3.03;1.05;;;20.50;93.40;;;;;;4710335;30;20044;-84
2021/08/08 03:29:20;;;;;;;1.00;0.52;;;20.50;93.60;;;;;;4710322;30;20025;-84
2021/08/08 03:31:47;;;;;;;;;;;20.50;93.40;;;;;;4710444;30;20033;-84
2021/08/08 03:34:14;;;;;;;2.58;0.90;;;20.50;93.30;;;;;;4710024;30;19915;-84
2021/08/08 03:36:41;;;;;;;1.38;0.82;;;20.50;93.70;;;;;;4711307;30;20113;-84
2021/08/08 03:39:07;;;;;;;1.52;0.82;;;20.50;93.30;;;;;;4710288;30;20038;-84
2021/08/08 03:41:33;;;;;;;1.67;1.20;;;20.50;93.40;;;;;;4710213;30;20033;-84
2021/08/08 03:43:59;;;;;;;1.35;0.85;;;20.50;93.50;;;;;;4709907;30;20037;-84
2021/08/08 03:46:24;;;;;;;3.75;0.77;;;20.50;93.30;;;;;;4709705;30;20056;-84
2021/08/08 03:48:52;;;;;;;1.90;0.80;;;20.40;92.90;;;;;;4710051;30;20026;-84
2021/08/08 03:51:18;;;;;;;2.47;1.00;;;20.30;93.10;;;;;;4724476;30;20104;-84
2021/08/08 03:53:45;;;;;;;1.10;0.93;;;20.30;93.10;;;;;;4724468;30;20040;-84
2021/08/08 03:56:11;;;;;;;1.23;0.93;;;20.30;93.20;;;;;;4724727;30;20038;-84
2021/08/08 03:58:37;;;;;;;1.73;0.90;;;20.20;93.20;;;;;;4724449;30;20029;-84
2021/08/08 04:01:05;;;;;;;1.42;0.85;;;20.20;93.00;;;;;;4724161;30;20614;-84
2021/08/08 04:03:34;;;;;;;3.30;0.82;;;20.30;93.40;;;;;;4709990;30;20332;-84
2021/08/08 04:06:00;;;;;;;1.38;0.73;;;20.30;93.50;;;;;;4724056;30;20084;-84
2021/08/08 04:08:26;;;;;;;3.50;0.93;;;20.30;93.20;;;;;;4724015;30;20324;-84
2021/08/08 04:10:54;;;;;;;1.58;0.80;;;20.30;93.30;;;;;;4724109;30;20038;-84
2021/08/08 04:13:21;;;;;;;1.23;1.00;;;20.30;93.20;;;;;;4724115;30;20285;-84
2021/08/08 04:15:47;;;;;;;3.88;0.98;;;20.40;93.30;;;;;;4724185;30;20065;-84
2021/08/08 04:18:13;;;;;;;1.10;0.98;;;20.30;92.90;;;;;;4695074;30;20099;-84
2021/08/08 04:20:42;;;;;;;1.30;0.90;;;20.40;93.30;;;;;;4708718;30;20117;-84
2021/08/08 04:23:10;;;;;;;1.48;0.90;;;20.40;92.80;;;;;;4723860;30;20059;-84
2021/08/08 04:25:40;;;;;;;0.80;0.70;;;20.40;93.00;;;;;;4709609;30;20271;-84
2021/08/08 04:28:08;;;;;;;1.45;0.70;;;20.50;93.00;;;;;;4723903;30;20029;-84
2021/08/08 04:30:36;;;;;;;0.60;0.60;;;20.50;92.90;;;;;;4709696;30;20030;-84
2021/08/08 04:33:03;;;;;;;1.00;0.80;;;20.50;92.70;;;;;;4709385;30;20109;-85
2021/08/08 04:35:30;;;;;;;3.80;1.10;;;20.50;92.80;;;;;;4709528;30;20049;-84
2021/08/08 04:37:56;;;;;;;1.08;0.77;;;20.50;92.90;;;;;;4724016;30;20025;-84
2021/08/08 04:40:24;;;;;;;3.45;0.70;;;20.60;92.70;;;;;;4724246;30;20104;-84
2021/08/08 04:42:50;;;;;;;1.00;0.77;;;20.50;92.80;;;;;;4709751;30;20180;-84
2021/08/08 04:45:16;;;;;;;1.13;0.75;;;20.60;92.80;;;;;;4723670;30;20042;-84
2021/08/08 04:47:42;;;;;;;1.73;0.75;;;20.60;92.60;;;;;;4723719;30;20049;-84
2021/08/08 04:50:12;;;;;;;0.85;0.73;;;20.70;92.40;;;;;;4708947;30;20083;-84
2021/08/08 04:52:38;;;;;;;0.85;0.68;;;20.60;92.70;;;;;;4723689;30;20033;-84
2021/08/08 04:55:07;;;;;;;1.17;0.75;;;20.60;92.00;;;;;;4694734;30;20029;-84
2021/08/08 04:57:33;;;;;;;0.52;0.52;;;20.60;92.10;;;;;;4709024;30;20331;-84
2021/08/08 04:59:58;;;;;;;2.10;0.90;;;20.70;92.50;;;;;;4709291;30;20034;-84
2021/08/08 05:02:24;;;;;;;1.10;0.90;;;20.70;92.20;;;;;;4710084;30;20029;-84
2021/08/08 05:04:50;;;;;;;2.13;0.82;;;20.60;91.70;;;;;;4723336;30;20097;-84
2021/08/08 05:07:17;;;;;;;1.17;0.90;;;20.70;92.20;;;;;;4709273;30;20033;-84
2021/08/08 05:09:43;;;;;;;1.90;0.60;;;20.70;91.90;;;;;;4694577;30;20037;-84
2021/08/08 05:12:10;;;;;;;1.02;0.82;;;20.80;92.00;;;;;;4723621;30;20313;-84
2021/08/08 05:14:41;;;;;;;0.73;0.63;;;20.90;92.00;;;;;;4723532;30;20082;-84
2021/08/08 05:17:07;;;;;;;2.15;1.00;;;20.90;91.70;;;;;;4718832;30;20331;-84
2021/08/08 05:19:32;;;;;;;0.82;0.63;;;21.00;92.60;;;;;;4723656;30;20038;-84
2021/08/08 05:21:59;;;;;;;2.25;0.80;;;21.10;91.70;;;;;;4723408;30;20033;-84
2021/08/08 05:24:25;;;;;;;;;;;21.20;92.00;;;;;;4709428;30;20057;-84
2021/08/08 05:26:53;;;;;;;1.30;0.60;;;21.20;92.50;;;;;;4723164;30;19938;-84
2021/08/08 05:29:19;;;;;;;0.82;0.65;;;21.30;91.80;;;;;;4723223;30;20669;-84
2021/08/08 05:31:45;;;;;;;1.58;0.98;;;21.20;90.80;;;;;;4709500;30;20033;-84
2021/08/08 05:34:11;;;;;;;1.88;0.90;;;21.30;91.00;;;;;;4726720;30;20320;-84
2021/08/08 05:36:37;;;;;;;1.33;0.70;;;21.40;91.70;;;;;;4712379;30;20041;-85
2021/08/08 05:39:03;;;;;;;1.92;1.00;;;21.50;91.40;;;;;;4711945;30;20037;-84
2021/08/08 05:41:29;;;;;;;1.63;1.05;;;21.60;91.50;;;;;;4711840;30;20257;-85
2021/08/08 05:43:55;;;;;;;2.33;0.90;;;21.70;91.10;;;;;;4726543;30;20042;-85
2021/08/08 05:46:21;;;;;;;1.13;0.82;;;21.70;90.80;;;;;;4725579;30;20080;-85
2021/08/08 05:48:48;;;;;;;2.08;0.88;;;21.70;90.80;;;;;;4711543;30;20155;-85
2021/08/08 05:51:14;;;;;;;1.20;0.80;;;21.70;90.60;;;;;;4697196;30;20037;-85
2021/08/08 05:53:40;;;;;;;2.72;0.93;;;21.70;90.70;;;;;;4725955;30;20060;-85
2021/08/08 05:56:06;;;;;;;2.15;0.95;;;21.80;91.10;;;;;;4711300;30;20036;-85
2021/08/08 05:58:36;;;;;;;0.63;0.63;;;21.90;90.90;;;;;;4697684;30;20108;-84
2021/08/08 06:01:02;;;;;;;2.95;1.38;;;22.00;90.80;;;;;;4725921;30;20029;-85
2021/08/08 06:03:28;;;;;;;1.92;0.90;;;22.00;90.40;;;;;;4696881;30;20333;-85
2021/08/08 06:05:53;;;;;;;1.65;0.88;;;22.10;90.60;;;;;;4711402;30;20039;-85
2021/08/08 06:08:19;;;;;;;1.08;0.98;;;22.20;90.80;;;;;;4696446;30;20033;-84
2021/08/08 06:10:45;;;;;;;0.97;0.60;;;22.20;90.30;;;;;;4711005;30;20376;-84
2021/08/08 06:13:15;;;;;;;2.00;0.95;;;22.10;88.40;;;;;;4711162;30;20076;-84
2021/08/08 06:15:42;;;;;;;1.88;0.90;;;22.00;88.90;;;;;;4723956;30;20279;-84
2021/08/08 06:18:10;;;;;;;0.82;0.70;;;22.10;89.90;;;;;;4725507;30;20049;-84
2021/08/08 06:20:36;;;;;;;1.42;1.02;;;22.10;87.80;;;;;;4695901;30;20064;-85
2021/08/08 06:23:02;;;;;;;0.60;0.60;;;22.20;90.00;;;;;;4725914;30;20033;-84
2021/08/08 06:25:28;;;;;;;0.80;0.75;;;22.20;88.00;;;;;;4725734;30;20045;-84
2021/08/08 06:27:53;;;;;;;1.55;1.02;;;22.20;90.10;;;;;;4725677;30;20161;-84
2021/08/08 06:30:20;;;;;;;;;;;22.20;90.20;;;;;;4726458;30;20032;-85
2021/08/08 06:32:48;;;;;;;4.97;1.08;;;22.20;90.30;;;;;;4725563;30;19907;-85
2021/08/08 06:35:14;;;;;;;1.35;0.82;;;22.20;90.50;;;;;;4725567;30;20122;-85
2021/08/08 06:37:43;;;;;;;2.03;1.07;;;22.30;90.90;;;;;;4725943;30;20585;-85
2021/08/08 06:40:12;;;;;;;1.73;0.90;;;22.50;90.40;;;;;;4707071;30;20507;-85
2021/08/08 06:42:39;;;;;;;1.60;0.68;;;22.70;90.50;;;;;;4719388;30;20030;-85
2021/08/08 06:45:06;;;;;;;1.17;0.97;;;22.80;89.50;;;;;;4724776;30;20074;-85
2021/08/08 06:47:32;;;;;;;1.52;0.95;;;22.90;88.30;;;;;;4703123;30;20170;-85
2021/08/08 06:49:58;;;;;;;1.35;0.90;;;22.90;86.60;;;;;;4708946;30;20029;-85
2021/08/08 06:52:24;;;;;;;0.75;0.60;;;23.00;86.50;;;;;;4712126;30;20038;-85
2021/08/08 06:54:50;;;;;;;0.98;0.80;;;23.20;85.90;;;;;;4710755;30;20087;-85
2021/08/08 06:57:27;;;;;;;0.55;0.55;;;23.20;82.40;;;;;;4710462;30;20076;-85
2021/08/08 06:59:55;;;;;;;3.53;0.80;;;23.30;82.20;;;;;;4710770;30;20064;-85
2021/08/08 07:02:21;;;;;;;0.82;0.82;;;23.30;82.40;;;;;;4722000;30;20029;-85
2021/08/08 07:04:48;;;;;;;3.45;0.47;;;23.50;82.60;;;;;;4694859;30;20047;-85
2021/08/08 07:07:15;;;;;;;0.88;0.75;;;23.60;80.20;;;;;;4724626;30;20029;-85
2021/08/08 07:09:42;;;;;;;0.82;0.52;;;23.60;79.90;;;;;;4722223;30;20218;-86
2021/08/08 07:12:08;;;;;;;2.03;0.75;;;23.70;79.60;;;;;;4707366;30;20033;-86
2021/08/08 07:14:41;;;;;;;1.60;0.63;;;23.70;78.80;;;;;;4710597;30;20055;-85
2021/08/08 07:17:07;;;;;;;1.30;0.73;;;23.70;79.20;;;;;;4711062;30;20065;-85
2021/08/08 07:19:33;;;;;;;1.40;0.60;;;23.70;79.40;;;;;;4710310;30;20037;-86
2021/08/08 07:21:59;;;;;;;1.20;0.60;;;23.70;78.00;;;;;;4725364;30;20292;-85
2021/08/08 07:24:28;;;;;;;6.45;0.60;;;23.80;78.30;;;;;;4724608;30;20237;-85
2021/08/08 07:26:58;;;;;;;5.53;4.07;;;24.20;78.20;;;;;;4695254;30;20037;-85
2021/08/08 07:29:25;;;;;;;1.83;0.85;;;24.40;75.60;;;;;;4719743;30;20041;-86
2021/08/08 07:31:51;;;;;;;0.73;0.60;;;24.40;74.40;;;;;;4709520;30;20029;-84
2021/08/08 07:34:17;;;;;;;1.25;0.93;;;24.30;73.30;;;;;;4737639;30;20336;-83
2021/08/08 07:36:44;;;;;;;;;;;24.20;74.00;;;;;;4710011;30;20041;-82
2021/08/08 07:39:10;;;;;;;1.80;0.77;;;23.90;74.60;;;;;;4709649;30;20261;-85
2021/08/08 07:41:36;;;;;;;1.77;1.02;;;23.60;74.20;;;;;;4709998;30;20029;-85
2021/08/08 07:44:02;;;;;;;0.93;0.80;;;23.40;75.70;;;;;;4710518;30;20033;-85
2021/08/08 07:46:29;;;;;;;1.98;0.60;;;23.20;76.80;;;;;;4695208;30;20050;-85
2021/08/08 07:48:56;;;;;;;0.87;0.60;;;23.20;77.20;;;;;;4695282;30;20030;-85
2021/08/08 07:51:22;;;;;;;2.60;0.98;;;23.30;77.50;;;;;;4709627;30;20038;-84
2021/08/08 07:53:48;;;;;;;2.20;1.08;;;23.40;76.50;;;;;;4709792;30;20057;-84
2021/08/08 07:56:14;;;;;;;1.17;1.00;;;23.40;76.50;;;;;;4710076;30;20438;-85
2021/08/08 07:58:41;;;;;;;1.38;1.00;;;23.50;77.50;;;;;;4709243;30;20280;-85
2021/08/08 08:01:07;;;;;;;3.05;1.10;;;23.80;76.10;;;;;;4710505;30;20111;-85
2021/08/08 08:03:33;;;;;;;1.33;1.10;;;24.00;74.90;;;;;;4708363;30;20034;-85
2021/08/08 08:05:59;;;;;;;1.38;0.73;;;24.30;76.00;;;;;;4709301;30;20300;-84
2021/08/08 08:08:25;;;;;;;1.30;0.85;;;24.50;73.80;;;;;;4724130;30;20038;-84
2021/08/08 08:10:51;;;;;;;0.88;0.57;;;24.30;73.00;;;;;;4709693;30;20034;-84
2021/08/08 08:13:17;;;;;;;0.57;0.57;;;24.10;72.90;;;;;;4707380;30;20037;-84
2021/08/08 08:15:43;;;;;;;1.10;0.55;;;24.00;74.50;;;;;;4710247;30;20251;-84
2021/08/08 08:18:09;;;;;;;1.73;0.57;;;23.80;74.20;;;;;;4719561;30;20042;-85
2021/08/08 08:20:37;;;;;;;1.10;0.60;;;23.70;74.80;;;;;;4705820;30;20328;-84
2021/08/08 08:23:04;;;;;;;1.02;0.73;;;23.60;76.00;;;;;;4724941;30;20049;-84
2021/08/08 08:25:30;;;;;;;1.88;1.02;;;23.70;75.80;;;;;;4711058;30;20292;-85
2021/08/08 08:27:56;;;;;;;1.85;0.70;;;23.80;76.30;;;;;;4725278;30;20037;-84
2021/08/08 08:30:22;;;;;;;1.08;0.68;;;23.80;76.00;;;;;;4704208;30;20034;-85
2021/08/08 08:32:48;;;;;;;1.58;1.15;;;23.80;75.10;;;;;;4709769;30;20040;-85
2021/08/08 08:35:14;;;;;;;1.27;0.90;;;23.80;74.50;;;;;;4724589;30;20037;-85
2021/08/08 08:37:40;;;;;;;2.60;0.50;;;23.70;73.70;;;;;;4695378;30;20049;-84
2021/08/08 08:40:07;;;;;;;1.00;0.68;;;23.60;73.10;;;;;;4695333;30;20033;-85
2021/08/08 08:42:35;;;;;;;1.90;0.80;;;23.50;73.20;;;;;;4721309;30;20037;-84
2021/08/08 08:45:02;;;;;;;1.60;0.68;;;23.40;73.50;;;;;;4692775;30;20034;-84
2021/08/08 08:47:32;;;;;;;1.70;0.70;;;23.40;73.90;;;;;;4723230;30;20054;-85
2021/08/08 08:50:01;;;;;;;1.17;0.77;;;23.50;74.10;;;;;;4701095;30;20034;-85
2021/08/08 08:52:29;;;;;;;1.50;0.73;;;23.70;73.70;;;;;;4712580;30;20030;-85
2021/08/08 08:54:55;;;;;;;1.70;0.90;;;23.80;73.60;;;;;;4710266;30;20029;-84
2021/08/08 08:57:21;;;;;;;5.93;1.23;;;23.70;72.00;;;;;;4713714;30;20320;-85
2021/08/08 08:59:49;;;;;;;4.23;1.47;;;23.60;71.90;;;;;;4719835;30;20038;-84
2021/08/08 09:02:17;;;;;;;0.52;0.47;;;23.60;71.70;;;;;;4694593;30;20272;-84
2021/08/08 09:04:43;;;;;;;1.67;0.60;;;23.70;72.50;;;;;;4723630;30;20029;-84
2021/08/08 09:07:09;;;;;;;1.67;0.70;;;23.90;72.70;;;;;;4725343;30;20048;-84
2021/08/08 09:09:37;;;;;;;1.10;0.60;;;23.90;71.30;;;;;;4709706;30;20026;-84
2021/08/08 09:12:04;;;;;;;1.85;0.80;;;24.00;70.70;;;;;;4719148;30;20259;-84
2021/08/08 09:14:34;;;;;;;3.00;1.42;;;23.90;71.60;;;;;;4698646;30;20025;-84
2021/08/08 09:17:00;;;;;;;12.07;1.50;;;23.90;71.70;;;;;;4727452;30;20311;-84
2021/08/08 09:19:36;;;;;;;6.93;1.27;;;23.90;72.60;;;;;;4698554;30;20060;-84
2021/08/08 09:22:06;;;;;;;3.00;1.25;;;23.90;71.50;;;;;;4698432;30;20180;-84
2021/08/08 09:24:37;;;;;;;5.13;1.10;;;23.90;72.40;;;;;;4727144;30;20048;-85
2021/08/08 09:27:11;;;;;;;3.22;1.08;;;23.80;71.70;;;;;;4727146;30;20394;-84
2021/08/08 09:29:41;;;;;;;2.33;1.40;;;23.80;72.70;;;;;;4727837;30;20030;-85
2021/08/08 09:32:08;;;;;;;7.93;1.75;;;23.80;72.70;;;;;;4728523;30;20132;-84
2021/08/08 09:34:36;;;;;;;3.08;1.30;;;23.70;73.20;;;;;;4728653;30;20379;-84
2021/08/08 09:37:07;;;;;;;2.10;1.30;;;23.70;73.40;;;;;;4728844;30;20061;-85
2021/08/08 09:39:41;;;;;;;3.03;0.90;;;23.60;74.00;;;;;;4729119;30;20076;-85
2021/08/08 09:42:08;;;;;;;2.30;1.10;;;23.70;73.90;;;;;;4726883;30;20030;-84
2021/08/08 09:44:36;;;;;;;6.45;1.15;;;23.70;76.30;;;;;;4727157;30;20034;-85
2021/08/08 09:47:01;;;;;;;2.00;1.00;;;23.80;76.70;;;;;;4726105;30;20083;-83
2021/08/08 09:49:27;;;;;;;3.00;0.90;;;23.80;75.30;;;;;;4697296;30;20321;-85
2021/08/08 09:51:54;;;;;;;7.35;2.28;;;23.90;75.60;;;;;;4712331;30;20033;-84
2021/08/08 09:54:20;;;;;;;3.15;0.70;;;23.90;76.70;;;;;;4726078;30;20029;-83
2021/08/08 09:57:00;;;;;;;1.17;0.90;;;23.90;75.30;;;;;;4711803;30;20038;-84
2021/08/08 09:59:26;;;;;;;1.88;1.17;;;23.90;74.90;;;;;;4697297;30;20042;-84
2021/08/08 10:01:52;;;;;;;2.08;1.42;;;23.90;75.50;;;;;;4697416;30;20045;-84
2021/08/08 10:04:18;;;;;;;1.95;0.88;;;23.90;74.50;;;;;;4726486;30;20080;-84
2021/08/08 10:06:45;;;;;;;3.85;1.40;;;24.00;74.90;;;;;;4711607;30;20037;-84
2021/08/08 10:09:12;;;;;;;2.00;0.90;;;24.10;74.20;;;;;;4711770;30;20226;-84
2021/08/08 10:11:43;;;;;;;2.60;1.13;;;24.20;74.50;;;;;;4726019;30;20040;-84
2021/08/08 10:14:12;;;;;;;2.53;1.00;;;24.50;73.40;;;;;;4711434;30;20033;-84
2021/08/08 10:16:41;;;;;;;1.88;0.90;;;24.50;73.40;;;;;;4721840;30;20397;-85
2021/08/08 10:19:08;;;;;;;1.88;0.90;;;24.70;72.00;;;;;;4710931;30;20072;-84
2021/08/08 10:21:38;;;;;;;;;;;24.70;72.30;;;;;;4727317;30;20048;-84
2021/08/08 10:24:08;;;;;;;3.20;1.20;;;24.70;71.90;;;;;;4697658;30;19917;-84
2021/08/08 10:26:34;;;;;;;5.38;1.25;;;24.70;71.60;;;;;;4726502;30;20055;-84
2021/08/08 10:29:01;;;;;;;4.10;1.20;;;24.90;72.50;;;;;;4725532;30;20026;-84
2021/08/08 10:31:30;;;;;;;6.00;1.30;;;25.00;70.60;;;;;;4693739;30;20042;-84
2021/08/08 10:33:58;;;;;;;1.83;1.05;;;25.10;69.70;;;;;;4693774;30;20285;-84
2021/08/08 10:36:28;;;;;;;3.22;0.95;;;25.40;70.90;;;;;;4694462;30;20042;-84
2021/08/08 10:39:07;;;;;;;1.30;0.90;;;25.60;69.30;;;;;;4693253;30;20082;-84
2021/08/08 10:41:33;;;;;;;5.07;1.20;;;25.80;68.00;;;;;;4687412;30;20096;-84
2021/08/08 10:44:10;;;;;;;2.25;0.95;;;26.00;67.60;;;;;;4693023;30;20034;-84
2021/08/08 10:46:48;;;;;;;3.03;0.70;;;25.90;67.90;;;;;;4692864;30;20080;-84
2021/08/08 10:49:25;;;;;;;1.40;0.90;;;25.90;67.90;;;;;;4678599;30;20046;-84
2021/08/08 10:51:59;;;;;;;2.25;1.08;;;25.90;68.70;;;;;;4678788;30;20030;-84
2021/08/08 10:54:25;;;;;;;2.80;1.13;;;25.90;67.50;;;;;;4678573;30;20052;-84
2021/08/08 10:56:51;;;;;;;2.47;1.00;;;25.80;67.80;;;;;;4692779;30;20037;-84
2021/08/08 10:59:19;;;;;;;5.53;0.90;;;25.70;67.10;;;;;;4692451;30;20037;-84
2021/08/08 11:01:46;;;;;;;4.03;1.20;;;25.60;67.40;;;;;;4693343;30;20049;-84
2021/08/08 11:04:13;;;;;;;2.13;1.15;;;25.60;68.00;;;;;;4692150;30;20323;-84
2021/08/08 11:06:42;;;;;;;5.35;1.00;;;25.60;68.20;;;;;;4678287;30;20041;-84
2021/08/08 11:09:08;;;;;;;1.20;0.80;;;25.50;67.00;;;;;;4702951;30;20168;-84
2021/08/08 11:11:36;;;;;;;2.88;1.15;;;25.50;67.80;;;;;;4710053;30;20256;-84
2021/08/08 11:14:10;;;;;;;3.85;1.00;;;25.60;67.70;;;;;;4710439;30;20029;-84
2021/08/08 11:16:35;;;;;;;1.85;0.95;;;25.60;66.60;;;;;;4725021;30;20033;-84
2021/08/08 11:19:01;;;;;;;3.05;0.90;;;25.60;67.60;;;;;;4695823;30;20068;-84
2021/08/08 11:21:27;;;;;;;1.60;0.98;;;25.60;66.60;;;;;;4704524;30;20038;-84
2021/08/08 11:23:55;;;;;;;1.88;0.95;;;25.70;67.50;;;;;;4696065;30;20328;-84
2021/08/08 11:26:21;;;;;;;1.98;0.90;;;25.90;68.20;;;;;;4710633;30;20050;-84
2021/08/08 11:28:52;;;;;;;4.80;1.02;;;25.90;66.30;;;;;;4710170;30;20025;-84
2021/08/08 11:31:19;;;;;;;2.25;1.02;;;25.80;65.70;;;;;;4710388;30;20094;-84
2021/08/08 11:33:45;;;;;;;1.63;1.00;;;25.80;66.20;;;;;;4709680;30;20041;-84
2021/08/08 11:36:11;;;;;;;3.30;1.00;;;25.80;66.40;;;;;;4710249;30;20029;-84
2021/08/08 11:38:37;;;;;;;2.67;1.10;;;25.80;66.10;;;;;;4724683;30;20041;-84
2021/08/08 11:41:02;;;;;;;1.90;0.80;;;25.80;67.30;;;;;;4710245;30;20033;-84
2021/08/08 11:43:32;;;;;;;2.47;1.20;;;25.80;65.70;;;;;;4718658;30;20040;-84
2021/08/08 11:46:00;;;;;;;2.47;1.20;;;25.90;67.40;;;;;;4723837;30;20082;-84
2021/08/08 11:48:29;;;;;;;2.03;0.93;;;26.00;67.10;;;;;;4723817;30;20033;-84
2021/08/08 11:51:03;;;;;;;2.33;0.80;;;26.00;65.60;;;;;;4709842;30;20056;-84
2021/08/08 11:53:32;;;;;;;1.48;1.00;;;25.90;66.00;;;;;;4724654;30;20112;-84
2021/08/08 11:56:15;;;;;;;1.85;1.00;;;26.00;64.90;;;;;;4724305;30;20041;-84
2021/08/08 11:58:50;;;;;;;2.13;1.50;;;26.10;65.00;;;;;;4709771;30;20033;-84
2021/08/08 12:01:20;;;;;;;1.95;1.00;;;26.30;64.30;;;;;;4709711;30;20079;-84
2021/08/08 12:03:50;;;;;;;4.07;1.27;;;26.50;65.90;;;;;;4723762;30;20224;-84
2021/08/08 12:06:25;;;;;;;2.05;0.82;;;26.70;63.80;;;;;;4724171;30;20050;-84
2021/08/08 12:08:53;;;;;;;1.80;0.93;;;26.70;65.30;;;;;;4724367;30;20103;-84
2021/08/08 12:11:20;;;;;;;;;;;26.80;63.10;;;;;;4724135;30;20045;-84
2021/08/08 12:14:01;;;;;;;4.22;1.65;;;26.80;62.80;;;;;;4724141;30;19946;-84
2021/08/08 12:16:32;;;;;;;1.58;0.90;;;26.90;63.20;;;;;;4715338;30;20104;-84
2021/08/08 12:18:58;;;;;;;2.45;1.30;;;26.80;62.70;;;;;;4723901;30;20041;-84
2021/08/08 12:21:24;;;;;;;3.72;1.40;;;26.80;61.90;;;;;;4695250;30;20348;-84
2021/08/08 12:23:50;;;;;;;2.67;0.80;;;26.80;62.00;;;;;;4709914;30;20216;-84
2021/08/08 12:26:25;;;;;;;1.58;0.80;;;26.80;61.00;;;;;;4694840;30;20034;-84
2021/08/08 12:29:03;;;;;;;2.20;0.90;;;26.80;61.50;;;;;;4709168;30;20030;-84
2021/08/08 12:31:40;;;;;;;2.45;0.90;;;26.70;60.60;;;;;;4723832;30;20068;-84
2021/08/08 12:34:06;;;;;;;;;;;26.70;62.60;;;;;;4709623;30;20035;-84
2021/08/08 12:36:41;;;;;;;1.00;0.80;;;26.90;62.70;;;;;;4723657;30;19919;-84
2021/08/08 12:39:07;;;;;;;1.05;0.77;;;27.10;61.40;;;;;;4723686;30;20036;-83
2021/08/08 12:41:41;;;;;;;1.20;0.98;;;27.20;61.40;;;;;;4722590;30;20363;-83
2021/08/08 12:44:09;;;;;;;1.50;0.80;;;27.20;61.20;;;;;;4694591;30;20275;-84
2021/08/08 12:46:42;;;;;;;1.83;0.88;;;27.30;60.70;;;;;;4723073;30;20253;-84
2021/08/08 12:49:12;;;;;;;2.13;1.08;;;27.30;60.20;;;;;;4723071;30;20084;-83
2021/08/08 12:51:39;;;;;;;1.75;0.90;;;27.30;60.40;;;;;;4723788;30;20038;-84
2021/08/08 12:54:07;;;;;;;1.50;0.90;;;27.40;60.30;;;;;;4723533;30;20060;-83
2021/08/08 12:56:33;;;;;;;2.53;0.80;;;27.50;59.80;;;;;;4723891;30;20044;-84
2021/08/08 12:58:59;;;;;;;0.85;0.80;;;27.60;59.70;;;;;;4724203;30;20325;-84
2021/08/08 13:01:29;;;;;;;2.28;0.90;;;27.60;59.30;;;;;;4709741;30;20065;-83
2021/08/08 13:03:56;;;;;;;5.35;1.05;;;27.60;59.70;;;;;;4723619;30;20041;-84
2021/08/08 13:06:23;;;;;;;1.38;0.80;;;27.60;60.10;;;;;;4723263;30;20233;-84
2021/08/08 13:08:52;;;;;;;1.27;1.00;;;27.60;59.10;;;;;;4709224;30;20037;-84
2021/08/08 13:11:18;;;;;;;4.38;0.95;;;27.60;58.50;;;;;;4723438;30;20065;-84
2021/08/08 13:13:44;;;;;;;1.98;0.93;;;27.60;58.80;;;;;;4723814;30;20022;-84
2021/08/08 13:16:10;;;;;;;1.88;0.70;;;27.60;60.00;;;;;;4709866;30;20118;-84
2021/08/08 13:18:36;;;;;;;2.30;0.82;;;27.60;58.60;;;;;;4707824;30;20214;-84
2021/08/08 13:21:03;;;;;;;3.53;1.10;;;27.40;59.60;;;;;;4708597;30;20037;-84
2021/08/08 13:23:29;;;;;;;0.98;0.88;;;27.40;60.20;;;;;;4723527;30;20100;-84
2021/08/08 13:25:56;;;;;;;;;;;27.20;59.60;;;;;;4723736;30;20108;-84
2021/08/08 13:28:21;;;;;;;1.17;0.82;;;26.90;58.50;;;;;;4694573;30;19962;-84
2021/08/08 13:30:47;;;;;;;2.17;1.17;;;26.80;60.20;;;;;;4723394;30;20029;-83
2021/08/08 13:33:13;;;;;;;2.45;1.05;;;26.70;60.00;;;;;;4723578;30;20076;-84
2021/08/08 13:35:39;;;;;;;2.42;1.20;;;26.60;60.70;;;;;;4709205;30;20034;-83
2021/08/08 13:38:04;;;;;;;3.17;1.42;;;26.70;61.70;;;;;;4694726;30;20033;-84
2021/08/08 13:40:31;;;;;;;2.33;1.00;;;26.70;61.40;;;;;;4724300;30;20033;-84
2021/08/08 13:42:57;;;;;;;2.05;1.08;;;26.80;60.30;;;;;;4724126;30;20034;-84
2021/08/08 13:45:23;;;;;;;1.15;0.90;;;26.70;59.70;;;;;;4709073;30;20034;-84
2021/08/08 13:47:49;;;;;;;1.17;0.95;;;26.80;60.90;;;;;;4709796;30;20067;-84
2021/08/08 13:50:15;;;;;;;1.52;0.85;;;26.90;59.80;;;;;;4708046;30;20033;-84
2021/08/08 13:52:41;;;;;;;6.88;1.08;;;26.80;58.90;;;;;;4709319;30;20038;-84
2021/08/08 13:55:08;;;;;;;2.80;1.10;;;26.80;60.60;;;;;;4711220;30;20102;-84
2021/08/08 13:57:33;;;;;;;1.63;1.00;;;26.90;61.20;;;;;;4711233;30;20059;-83
2021/08/08 13:59:59;;;;;;;6.88;1.50;;;26.90;60.60;;;;;;4711368;30;20070;-83
2021/08/08 14:02:25;;;;;;;1.58;1.00;;;26.80;60.20;;;;;;4697113;30;20033;-84
2021/08/08 14:04:51;;;;;;;4.93;1.27;;;26.80;59.60;;;;;;4711347;30;20091;-83
2021/08/08 14:07:16;;;;;;;4.05;1.50;;;26.80;60.80;;;;;;4696495;30;20340;-84
2021/08/08 14:09:42;;;;;;;3.33;1.13;;;27.00;61.20;;;;;;4709784;30;20044;-84
2021/08/08 14:12:08;;;;;;;1.35;0.77;;;27.20;61.20;;;;;;4697687;30;20201;-84
2021/08/08 14:14:34;;;;;;;1.58;0.98;;;27.30;60.70;;;;;;4699033;30;20225;-84
2021/08/08 14:17:00;;;;;;;2.97;1.13;;;27.40;59.40;;;;;;4711008;30;20380;-84
2021/08/08 14:19:26;;;;;;;5.03;1.00;;;27.40;58.90;;;;;;4696461;30;20285;-84
2021/08/08 14:21:53;;;;;;;2.17;1.10;;;27.20;59.80;;;;;;4707607;30;20301;-84
2021/08/08 14:24:18;;;;;;;2.20;1.10;;;27.00;59.50;;;;;;4696897;30;20159;-84
2021/08/08 14:26:44;;;;;;;2.25;1.13;;;26.80;60.90;;;;;;4697549;30;20299;-84
2021/08/08 14:29:11;;;;;;;1.20;1.10;;;26.70;60.30;;;;;;4711609;30;20030;-84
2021/08/08 14:31:37;;;;;;;1.60;0.80;;;26.60;61.60;;;;;;4726388;30;20109;-84
2021/08/08 14:34:03;;;;;;;2.63;1.07;;;26.80;61.60;;;;;;4711718;30;20041;-84
2021/08/08 14:36:28;;;;;;;1.90;0.70;;;27.10;62.70;;;;;;4726197;30;20288;-84
2021/08/08 14:38:54;;;;;;;4.68;1.17;;;27.40;59.40;;;;;;4711855;30;20033;-85
2021/08/08 14:41:20;;;;;;;2.05;0.90;;;27.30;59.70;;;;;;4696577;30;20064;-84
2021/08/08 14:43:46;;;;;;;1.83;0.98;;;27.00;60.00;;;;;;4711439;30;20033;-84
2021/08/08 14:46:12;;;;;;;3.65;0.65;;;26.60;59.00;;;;;;4711044;30;20276;-84
2021/08/08 14:48:37;;;;;;;2.28;1.48;;;26.50;62.80;;;;;;4711768;30;20029;-84
2021/08/08 14:51:03;;;;;;;4.13;0.88;;;26.40;62.20;;;;;;4725229;30;20026;-84
2021/08/08 14:53:29;;;;;;;5.18;1.00;;;26.20;61.00;;;;;;4710737;30;20033;-84
2021/08/08 14:55:55;;;;;;;2.40;1.30;;;26.10;63.70;;;;;;4711419;30;20042;-84
2021/08/08 14:58:24;;;;;;;1.15;0.95;;;26.20;63.20;;;;;;4711634;30;20252;-84
2021/08/08 15:00:52;;;;;;;3.70;1.10;;;26.30;62.90;;;;;;4680054;30;20046;-84
2021/08/08 15:03:17;;;;;;;5.75;0.93;;;26.40;63.10;;;;;;4711463;30;20037;-85
2021/08/08 15:05:43;;;;;;;4.18;1.02;;;26.50;65.70;;;;;;4695766;30;20030;-84
2021/08/08 15:08:09;;;;;;;2.47;0.93;;;26.60;64.00;;;;;;4710681;30;20097;-84
2021/08/08 15:10:34;;;;;;;1.30;1.00;;;26.60;64.10;;;;;;4710694;30;20036;-84
2021/08/08 15:13:00;;;;;;;1.80;1.17;;;26.60;63.40;;;;;;4719514;30;20105;-85
2021/08/08 15:15:26;;;;;;;1.67;0.82;;;26.70;63.30;;;;;;4725298;30;20030;-84
2021/08/08 15:17:59;;;;;;;1.17;0.75;;;26.70;63.90;;;;;;4724866;30;20029;-84
2021/08/08 15:20:27;;;;;;;1.73;1.00;;;26.70;63.40;;;;;;4724795;30;20037;-84
2021/08/08 15:22:53;;;;;;;2.60;1.25;;;26.80;64.30;;;;;;4710280;30;20030;-84
2021/08/08 15:25:19;;;;;;;2.13;0.93;;;26.80;62.10;;;;;;4718378;30;20033;-84
2021/08/08 15:27:44;;;;;;;2.70;1.08;;;26.60;61.40;;;;;;4722672;30;20296;-84
2021/08/08 15:30:11;;;;;;;1.67;0.90;;;26.60;62.20;;;;;;4719309;30;20052;-84
2021/08/08 15:32:37;;;;;;;1.83;1.20;;;26.70;62.10;;;;;;4694663;30;20029;-84